Time;durP1;ratioP1;P1;durP2;ratioP2;P2;SDS_P1;SDS_P2;PMS_P1;PMS_P2;Temp;Humidity;BMP_temperature;BMP_pressure;BME280_temperature;BME280_humidity;BME280_pressure;Samples;Min_cycle;Max_cycle;Signal;HPM_P1;HPM_P2
2023/06/29 00:01:48;;;;;;;43.33;32.40;;;19.20;99.90;;;;;;5080066;28;20036;-51
2023/06/29 00:04:20;;;;;;;40.05;29.85;;;19.20;99.90;;;;;;5063102;28;20044;-54
2023/06/29 00:06:46;;;;;;;38.38;29.95;;;19.20;99.90;;;;;;5082003;28;20044;-54
2023/06/29 00:09:12;;;;;;;36.97;27.58;;;19.20;99.90;;;;;;5062928;28;20052;-55
2023/06/29 00:11:38;;;;;;;39.83;28.88;;;19.20;99.90;;;;;;5069745;28;20537;-54
2023/06/29 00:14:04;;;;;;;43.30;30.55;;;19.20;99.90;;;;;;5066265;28;20082;-54
2023/06/29 00:16:30;;;;;;;34.45;26.23;;;19.10;99.90;;;;;;5060666;28;20115;-54
2023/06/29 00:18:56;;;;;;;41.28;32.08;;;19.10;99.90;;;;;;5048434;28;20067;-54
2023/06/29 00:21:22;;;;;;;39.72;32.50;;;19.20;99.90;;;;;;5082411;28;20502;-55
2023/06/29 00:23:47;;;;;;;38.35;28.33;;;19.20;99.90;;;;;;5033024;28;20040;-54
2023/06/29 00:26:13;;;;;;;43.28;31.02;;;19.20;99.90;;;;;;5047269;28;20052;-54
2023/06/29 00:28:39;;;;;;;45.63;34.88;;;19.20;99.90;;;;;;5066861;28;20090;-55
2023/06/29 00:31:05;;;;;;;45.92;31.70;;;19.20;99.90;;;;;;5072342;28;20040;-53
2023/06/29 00:33:31;;;;;;;40.40;32.13;;;19.20;99.90;;;;;;5067630;28;20048;-54
2023/06/29 00:35:57;;;;;;;41.50;32.10;;;19.20;99.90;;;;;;5070320;28;20372;-53
2023/06/29 00:38:23;;;;;;;41.92;30.95;;;19.20;99.90;;;;;;5056638;28;20301;-54
2023/06/29 00:40:49;;;;;;;45.78;33.60;;;19.20;99.90;;;;;;5080760;28;20052;-54
2023/06/29 00:43:14;;;;;;;41.28;33.38;;;19.20;99.90;;;;;;5064369;28;20040;-53
2023/06/29 00:45:40;;;;;;;47.70;37.08;;;19.20;99.90;;;;;;5064053;28;20040;-54
2023/06/29 00:48:06;;;;;;;42.75;31.88;;;19.20;99.90;;;;;;5081787;28;20047;-54
2023/06/29 00:50:32;;;;;;;43.67;34.90;;;19.20;99.90;;;;;;5064503;28;20087;-54
2023/06/29 00:52:59;;;;;;;40.53;30.95;;;19.20;99.90;;;;;;5084123;28;20079;-53
2023/06/29 00:55:25;;;;;;;48.75;33.67;;;19.20;99.90;;;;;;5067696;28;20040;-55
2023/06/29 00:57:50;;;;;;;53.92;38.53;;;19.20;99.90;;;;;;5064866;28;20063;-54
2023/06/29 01:00:17;;;;;;;43.17;31.27;;;19.20;99.90;;;;;;5070992;28;20054;-53
2023/06/29 01:02:43;;;;;;;48.03;37.42;;;19.20;99.90;;;;;;5070322;28;20119;-54
2023/06/29 01:05:10;;;;;;;53.13;38.28;;;19.20;99.90;;;;;;5085237;28;20135;-52
2023/06/29 01:07:38;;;;;;;47.05;36.08;;;19.20;99.90;;;;;;5086611;28;20040;-53
2023/06/29 01:10:07;;;;;;;51.22;33.75;;;19.20;99.90;;;;;;5084650;28;20052;-54
2023/06/29 01:12:33;;;;;;;45.33;34.72;;;19.20;99.90;;;;;;5068525;28;20666;-55
2023/06/29 01:14:59;;;;;;;49.28;35.63;;;19.20;99.90;;;;;;5082496;28;20024;-54
2023/06/29 01:17:29;;;;;;;53.55;37.67;;;19.20;99.90;;;;;;5083782;28;20028;-55
2023/06/29 01:19:56;;;;;;;48.53;38.85;;;19.20;99.90;;;;;;5063320;28;20040;-53
2023/06/29 01:22:28;;;;;;;52.38;38.10;;;19.20;99.90;;;;;;5072456;28;20044;-54
2023/06/29 01:24:55;;;;;;;51.22;36.00;;;19.20;99.90;;;;;;5048279;28;20037;-55
2023/06/29 01:27:23;;;;;;;42.45;32.17;;;19.20;99.90;;;;;;5069330;28;20352;-55
2023/06/29 01:29:53;;;;;;;48.78;36.53;;;19.20;99.90;;;;;;5081415;28;20138;-54
2023/06/29 01:32:19;;;;;;;60.45;41.08;;;19.20;99.90;;;;;;5087851;28;20073;-56
2023/06/29 01:34:45;;;;;;;49.88;37.90;;;19.20;99.90;;;;;;5067861;28;20040;-56
2023/06/29 01:37:17;;;;;;;53.13;38.85;;;19.20;99.90;;;;;;5070035;28;20040;-56
2023/06/29 01:39:51;;;;;;;46.05;34.53;;;19.10;99.90;;;;;;5086948;28;20040;-54
2023/06/29 01:42:20;;;;;;;56.38;38.85;;;19.20;99.90;;;;;;5072430;28;20614;-55
2023/06/29 01:44:46;;;;;;;47.72;36.60;;;19.10;99.90;;;;;;5084188;28;20406;-56
2023/06/29 01:47:15;;;;;;;53.22;39.67;;;19.10;99.90;;;;;;5084584;28;20055;-55
2023/06/29 01:49:42;;;;;;;51.60;40.25;;;19.10;99.90;;;;;;5080497;28;20127;-53
2023/06/29 01:52:08;;;;;;;53.25;40.45;;;19.10;99.90;;;;;;5070335;28;20122;-54
2023/06/29 01:54:34;;;;;;;51.15;38.47;;;19.20;99.90;;;;;;5069520;28;20042;-55
2023/06/29 01:57:00;;;;;;;52.50;39.05;;;19.10;99.90;;;;;;5085267;28;20040;-54
2023/06/29 01:59:26;;;;;;;48.80;36.85;;;19.10;99.90;;;;;;5065647;28;20040;-54
2023/06/29 02:01:52;;;;;;;47.38;37.25;;;19.10;99.90;;;;;;5068971;28;20134;-55
2023/06/29 02:04:17;;;;;;;46.75;35.15;;;19.10;99.90;;;;;;5054672;28;20114;-55
2023/06/29 02:06:43;;;;;;;54.47;39.67;;;19.10;99.90;;;;;;5066960;28;20036;-54
2023/06/29 02:09:09;;;;;;;48.50;38.08;;;19.10;99.90;;;;;;5063014;28;20043;-55
2023/06/29 02:11:35;;;;;;;55.17;39.75;;;19.10;99.90;;;;;;5078979;28;20100;-53
2023/06/29 02:14:01;;;;;;;49.10;38.20;;;19.10;99.90;;;;;;5051692;28;20082;-55
2023/06/29 02:16:26;;;;;;;55.10;39.72;;;19.10;99.90;;;;;;5045845;28;20036;-54
2023/06/29 02:18:52;;;;;;;43.85;35.20;;;19.10;99.90;;;;;;5054552;28;20127;-56
2023/06/29 02:21:18;;;;;;;46.22;35.88;;;19.00;99.90;;;;;;5079501;28;20028;-55
2023/06/29 02:23:43;;;;;;;47.03;36.83;;;19.10;99.90;;;;;;5082392;28;20032;-55
2023/06/29 02:26:09;;;;;;;50.10;38.80;;;19.10;99.90;;;;;;5067762;28;20072;-54
2023/06/29 02:28:35;;;;;;;43.78;35.88;;;19.10;99.90;;;;;;5068494;28;20039;-55
2023/06/29 02:31:00;;;;;;;47.15;34.22;;;19.10;99.90;;;;;;5084928;28;20120;-55
2023/06/29 02:33:26;;;;;;;53.30;39.55;;;19.10;99.90;;;;;;5065771;28;20046;-55
2023/06/29 02:35:51;;;;;;;51.72;37.33;;;19.10;99.90;;;;;;5083933;28;20429;-55
2023/06/29 02:38:17;;;;;;;53.42;37.30;;;19.10;99.90;;;;;;5060316;28;20066;-56
2023/06/29 02:40:43;;;;;;;55.88;38.38;;;19.10;99.90;;;;;;5063277;28;20046;-55
2023/06/29 02:43:09;;;;;;;48.53;36.55;;;19.00;99.90;;;;;;5081571;28;20377;-55
2023/06/29 02:45:34;;;;;;;43.17;32.15;;;19.00;99.90;;;;;;5073272;28;20044;-56
2023/06/29 02:48:00;;;;;;;46.95;35.72;;;19.10;99.90;;;;;;5064522;28;20047;-56
2023/06/29 02:50:26;;;;;;;49.42;36.40;;;19.00;99.90;;;;;;5035403;28;20063;-56
2023/06/29 02:52:52;;;;;;;45.90;35.30;;;19.00;99.90;;;;;;5083343;28;20054;-56
2023/06/29 02:55:22;;;;;;;45.78;35.45;;;19.00;99.90;;;;;;5047054;28;20606;-51
2023/06/29 02:57:48;;;;;;;51.25;36.65;;;19.00;99.90;;;;;;5080541;28;20040;-54
2023/06/29 03:00:14;;;;;;;47.50;34.55;;;19.00;99.90;;;;;;5048993;28;20101;-52
2023/06/29 03:02:40;;;;;;;38.92;31.25;;;19.00;99.90;;;;;;5075165;28;20124;-53
2023/06/29 03:05:06;;;;;;;46.45;34.72;;;19.00;99.90;;;;;;5070112;28;20497;-51
2023/06/29 03:07:32;;;;;;;43.30;34.38;;;19.00;99.90;;;;;;5064318;28;20123;-51
2023/06/29 03:09:58;;;;;;;43.67;34.38;;;19.00;99.90;;;;;;5063878;28;20051;-53
2023/06/29 03:12:24;;;;;;;44.30;32.92;;;19.00;99.90;;;;;;5057551;28;20044;-51
2023/06/29 03:14:50;;;;;;;41.63;29.30;;;19.00;99.90;;;;;;5046877;28;20044;-52
2023/06/29 03:17:16;;;;;;;44.10;31.95;;;19.00;99.90;;;;;;5064759;28;20650;-52
2023/06/29 03:19:41;;;;;;;37.38;28.38;;;19.00;99.90;;;;;;5062422;28;20036;-52
2023/06/29 03:22:07;;;;;;;42.95;32.00;;;19.00;99.90;;;;;;5045939;28;20044;-52
2023/06/29 03:24:33;;;;;;;42.40;32.17;;;19.00;99.90;;;;;;5049089;28;20580;-51
2023/06/29 03:26:59;;;;;;;45.92;31.73;;;19.00;99.90;;;;;;5067568;28;20044;-51
2023/06/29 03:29:25;;;;;;;44.50;32.25;;;19.10;99.90;;;;;;5062325;28;20047;-51
2023/06/29 03:31:51;;;;;;;39.60;28.98;;;19.10;99.90;;;;;;5049802;28;20074;-51
2023/06/29 03:34:17;;;;;;;41.75;30.80;;;19.00;99.90;;;;;;5063243;28;20414;-51
2023/06/29 03:36:43;;;;;;;46.33;31.88;;;19.00;99.90;;;;;;5050924;28;20469;-52
2023/06/29 03:39:08;;;;;;;42.58;30.25;;;19.10;99.90;;;;;;5084572;28;20506;-51
2023/06/29 03:41:34;;;;;;;40.17;31.10;;;19.10;99.90;;;;;;5060864;28;20059;-53
2023/06/29 03:44:00;;;;;;;38.42;29.98;;;19.10;99.90;;;;;;5064293;28;20032;-52
2023/06/29 03:46:25;;;;;;;40.10;29.15;;;19.10;99.90;;;;;;5068118;28;20101;-51
2023/06/29 03:48:51;;;;;;;38.70;28.83;;;19.10;99.90;;;;;;5062637;28;20046;-52
2023/06/29 03:51:17;;;;;;;41.97;30.40;;;19.10;99.90;;;;;;5061357;28;20306;-51
2023/06/29 03:53:43;;;;;;;37.85;29.48;;;19.10;99.90;;;;;;5081020;28;20075;-51
2023/06/29 03:56:10;;;;;;;39.10;30.15;;;19.10;99.90;;;;;;5061310;28;20060;-51
2023/06/29 03:58:36;;;;;;;42.25;31.25;;;19.10;99.90;;;;;;5084322;28;20112;-52
2023/06/29 04:01:01;;;;;;;35.45;27.90;;;19.10;99.90;;;;;;5046829;28;20166;-52
2023/06/29 04:03:27;;;;;;;41.75;29.77;;;19.10;99.90;;;;;;5064766;28;20040;-52
2023/06/29 04:05:53;;;;;;;37.65;29.17;;;19.10;99.90;;;;;;5044068;28;20051;-53
2023/06/29 04:08:19;;;;;;;42.38;29.15;;;19.10;99.90;;;;;;5081035;28;20032;-52
2023/06/29 04:10:44;;;;;;;32.90;26.15;;;19.20;99.90;;;;;;5060520;28;20032;-51
2023/06/29 04:13:10;;;;;;;34.47;27.10;;;19.10;99.90;;;;;;5030197;28;20036;-50
2023/06/29 04:15:36;;;;;;;34.63;27.27;;;19.20;99.90;;;;;;5060565;28;20063;-51
2023/06/29 04:18:01;;;;;;;36.80;30.05;;;19.10;99.90;;;;;;5084641;23;20122;-54
2023/06/29 04:20:28;;;;;;;39.05;27.50;;;19.20;99.90;;;;;;5057842;28;20047;-54
2023/06/29 04:22:55;;;;;;;39.03;29.45;;;19.20;99.90;;;;;;5082846;28;20071;-55
2023/06/29 04:25:21;;;;;;;33.58;25.95;;;19.20;99.90;;;;;;5082720;28;20066;-56
2023/06/29 04:27:46;;;;;;;34.70;27.25;;;19.20;99.90;;;;;;5064314;28;20044;-55
2023/06/29 04:30:12;;;;;;;40.00;29.65;;;19.20;99.90;;;;;;5057936;28;20395;-56
2023/06/29 04:32:39;;;;;;;40.75;29.08;;;19.30;99.90;;;;;;5076081;28;20044;-56
2023/06/29 04:35:05;;;;;;;40.38;27.67;;;19.30;99.90;;;;;;5081851;28;20079;-53
2023/06/29 04:37:40;;;;;;;38.00;25.42;;;19.30;99.90;;;;;;5085986;28;20044;-52
2023/06/29 04:40:09;;;;;;;36.80;26.10;;;19.30;99.90;;;;;;5080314;28;20488;-53
2023/06/29 04:42:46;;;;;;;35.75;27.33;;;19.30;99.90;;;;;;5087521;28;20112;-54
2023/06/29 04:45:21;;;;;;;34.83;26.98;;;19.30;99.90;;;;;;5067001;28;20402;-54
2023/06/29 04:47:50;;;;;;;37.50;25.85;;;19.30;99.90;;;;;;5068519;28;20466;-55
2023/06/29 04:50:24;;;;;;;33.30;24.90;;;19.30;99.90;;;;;;5085658;28;20119;-53
2023/06/29 04:52:58;;;;;;;38.75;26.65;;;19.30;99.90;;;;;;5052849;28;20032;-51
2023/06/29 04:55:24;;;;;;;;;;;19.30;99.90;;;;;;5084985;28;20048;-51
2023/06/29 04:57:51;;;;;;;29.92;23.15;;;19.30;99.90;;;;;;5065510;28;19920;-51
2023/06/29 05:00:17;;;;;;;35.83;26.13;;;19.30;99.90;;;;;;5069048;28;20032;-52
2023/06/29 05:02:43;;;;;;;38.13;26.15;;;19.30;99.90;;;;;;5062768;28;20509;-53
2023/06/29 05:05:09;;;;;;;42.30;25.48;;;19.30;99.90;;;;;;5077265;28;20044;-53
2023/06/29 05:07:37;;;;;;;36.15;27.13;;;19.30;99.90;;;;;;5080020;28;20071;-53
2023/06/29 05:10:03;;;;;;;30.85;23.30;;;19.30;99.90;;;;;;5079018;28;20040;-50
2023/06/29 05:12:29;;;;;;;33.70;24.42;;;19.30;99.90;;;;;;5077901;28;20451;-54
2023/06/29 05:14:55;;;;;;;33.15;24.42;;;19.30;99.90;;;;;;5062788;28;20396;-54
2023/06/29 05:17:21;;;;;;;40.40;26.52;;;19.30;99.90;;;;;;5060578;28;20035;-52
2023/06/29 05:19:47;;;;;;;37.92;25.50;;;19.30;99.90;;;;;;5077401;28;20036;-52
2023/06/29 05:22:14;;;;;;;32.85;24.88;;;19.30;99.90;;;;;;5066910;28;20032;-54
2023/06/29 05:24:40;;;;;;;31.88;22.73;;;19.30;99.90;;;;;;5082223;28;20047;-54
2023/06/29 05:27:06;;;;;;;32.72;23.85;;;19.30;99.90;;;;;;5068183;28;20340;-54
2023/06/29 05:29:32;;;;;;;28.83;22.77;;;19.30;99.90;;;;;;5081880;28;20273;-54
2023/06/29 05:31:58;;;;;;;32.42;23.70;;;19.30;99.90;;;;;;5061933;28;20512;-53
2023/06/29 05:34:24;;;;;;;33.35;24.83;;;19.30;99.90;;;;;;5080975;28;20063;-51
2023/06/29 05:36:49;;;;;;;31.35;23.05;;;19.30;99.90;;;;;;5077000;28;20044;-54
2023/06/29 05:39:15;;;;;;;31.88;23.42;;;19.30;99.90;;;;;;5069362;28;20071;-52
2023/06/29 05:41:41;;;;;;;29.63;22.92;;;19.30;99.90;;;;;;5059140;28;20075;-54
2023/06/29 05:44:07;;;;;;;34.10;25.63;;;19.30;99.90;;;;;;5080526;28;20079;-54
2023/06/29 05:46:36;;;;;;;31.23;23.02;;;19.30;99.90;;;;;;5073399;28;20198;-51
2023/06/29 05:49:02;;;;;;;30.10;24.73;;;19.40;99.90;;;;;;5065043;28;20486;-53
2023/06/29 05:51:28;;;;;;;33.05;24.65;;;19.30;99.90;;;;;;5083278;28;20074;-54
2023/06/29 05:53:54;;;;;;;31.10;23.45;;;19.40;99.90;;;;;;5068165;28;20036;-54
2023/06/29 05:56:20;;;;;;;30.85;22.45;;;19.40;99.90;;;;;;5080183;28;20117;-52
2023/06/29 05:58:46;;;;;;;31.55;23.77;;;19.40;99.90;;;;;;5086537;28;20752;-54
2023/06/29 06:01:13;;;;;;;30.90;22.55;;;19.40;99.90;;;;;;5079282;28;20035;-53
2023/06/29 06:03:39;;;;;;;29.83;22.80;;;19.40;99.90;;;;;;5046671;28;20046;-54
2023/06/29 06:06:05;;;;;;;34.17;24.50;;;19.50;99.90;;;;;;5071338;28;20071;-54
2023/06/29 06:08:31;;;;;;;34.40;23.77;;;19.50;99.90;;;;;;5053714;28;20044;-51
2023/06/29 06:10:57;;;;;;;30.55;22.35;;;19.50;99.90;;;;;;5083853;28;21004;-52
2023/06/29 06:13:23;;;;;;;31.92;23.63;;;19.50;99.90;;;;;;5080508;28;20115;-54
2023/06/29 06:15:48;;;;;;;34.63;24.45;;;19.50;99.90;;;;;;5084374;28;20044;-55
2023/06/29 06:18:14;;;;;;;29.58;22.83;;;19.60;99.90;;;;;;5072306;28;20032;-52
2023/06/29 06:20:40;;;;;;;29.38;23.77;;;19.60;99.90;;;;;;5082099;28;20032;-52
2023/06/29 06:23:05;;;;;;;32.92;24.33;;;19.60;99.90;;;;;;5066523;28;20106;-55
2023/06/29 06:25:31;;;;;;;31.67;22.73;;;19.60;99.90;;;;;;5065413;28;20699;-53
2023/06/29 06:27:57;;;;;;;34.38;23.65;;;19.60;99.90;;;;;;5060096;28;20066;-53
2023/06/29 06:30:23;;;;;;;35.38;24.38;;;19.60;99.90;;;;;;5094733;28;20673;-54
2023/06/29 06:32:52;;;;;;;32.30;25.00;;;19.60;99.90;;;;;;5071163;28;20075;-54
2023/06/29 06:35:18;;;;;;;30.50;23.52;;;19.60;99.90;;;;;;5075804;28;20643;-54
2023/06/29 06:37:45;;;;;;;33.10;23.85;;;19.70;99.90;;;;;;5067888;28;20533;-54
2023/06/29 06:40:11;;;;;;;32.78;25.10;;;19.70;99.90;;;;;;5056588;28;20101;-57
2023/06/29 06:42:38;;;;;;;33.42;25.52;;;19.70;99.90;;;;;;5077160;28;20121;-53
2023/06/29 06:45:05;;;;;;;31.17;23.45;;;19.80;99.90;;;;;;5074397;28;20541;-54
2023/06/29 06:47:32;;;;;;;32.22;23.20;;;19.80;99.90;;;;;;5070661;28;20521;-51
2023/06/29 06:49:59;;;;;;;34.40;25.77;;;19.90;99.90;;;;;;5050553;28;20605;-54
2023/06/29 06:52:26;;;;;;;32.17;24.15;;;19.90;99.90;;;;;;5056314;28;20110;-55
2023/06/29 06:54:52;;;;;;;31.63;23.60;;;20.00;99.90;;;;;;5073733;28;20550;-55
2023/06/29 06:57:18;;;;;;;38.10;24.60;;;20.00;99.90;;;;;;5081625;28;20186;-56
2023/06/29 06:59:44;;;;;;;34.80;24.77;;;20.00;99.90;;;;;;5083296;28;20597;-53
2023/06/29 07:02:11;;;;;;;32.30;23.08;;;20.00;99.90;;;;;;5060188;28;20042;-50
2023/06/29 07:04:37;;;;;;;34.63;24.05;;;20.10;99.90;;;;;;5059071;28;20130;-55
2023/06/29 07:07:03;;;;;;;37.95;25.63;;;20.10;99.90;;;;;;5054645;28;20127;-56
2023/06/29 07:09:29;;;;;;;32.30;22.85;;;20.10;99.90;;;;;;5076432;28;20085;-56
2023/06/29 07:11:55;;;;;;;32.33;23.85;;;20.20;99.90;;;;;;5064301;28;20036;-56
2023/06/29 07:14:21;;;;;;;34.83;24.40;;;20.20;99.90;;;;;;5071323;28;20272;-55
2023/06/29 07:16:48;;;;;;;33.28;25.33;;;20.20;99.90;;;;;;5058936;28;20526;-54
2023/06/29 07:19:14;;;;;;;36.78;25.95;;;20.30;99.90;;;;;;5061579;28;20101;-56
2023/06/29 07:21:40;;;;;;;36.35;26.83;;;20.30;99.90;;;;;;5078511;28;20048;-54
2023/06/29 07:24:07;;;;;;;35.85;25.60;;;20.40;99.90;;;;;;5070086;28;20115;-57
2023/06/29 07:26:33;;;;;;;39.85;27.95;;;20.40;99.90;;;;;;5065525;28;20054;-56
2023/06/29 07:28:58;;;;;;;35.58;25.75;;;20.40;99.90;;;;;;5068728;28;20032;-54
2023/06/29 07:31:29;;;;;;;41.85;28.73;;;20.50;99.90;;;;;;5075951;28;20592;-54
2023/06/29 07:33:55;;;;;;;36.45;26.88;;;20.50;99.90;;;;;;5071164;28;20552;-54
2023/06/29 07:36:23;;;;;;;36.55;26.50;;;20.60;99.90;;;;;;5075212;28;20052;-56
2023/06/29 07:38:49;;;;;;;36.13;26.60;;;20.60;99.90;;;;;;5075173;28;20040;-57
2023/06/29 07:41:16;;;;;;;35.83;26.38;;;20.60;99.90;;;;;;5064276;28;20132;-56
2023/06/29 07:43:46;;;;;;;37.58;26.77;;;20.70;99.90;;;;;;5064468;28;20072;-57
2023/06/29 07:46:12;;;;;;;35.90;26.20;;;20.80;99.90;;;;;;5077853;28;20062;-56
2023/06/29 07:48:37;;;;;;;40.53;27.63;;;20.90;99.90;;;;;;5059727;28;20063;-54
2023/06/29 07:51:03;;;;;;;37.63;27.63;;;21.00;99.90;;;;;;5077333;28;20056;-55
2023/06/29 07:53:30;;;;;;;36.88;27.08;;;21.10;99.90;;;;;;5075285;28;20518;-56
2023/06/29 07:55:56;;;;;;;37.88;28.65;;;21.10;99.90;;;;;;5066383;28;20047;-56
2023/06/29 07:58:22;;;;;;;38.70;26.75;;;21.20;99.90;;;;;;5051833;28;20044;-56
2023/06/29 08:00:50;;;;;;;39.70;27.83;;;21.20;99.90;;;;;;5046456;28;20069;-54
2023/06/29 08:03:16;;;;;;;39.63;27.20;;;21.30;99.90;;;;;;5066725;28;20039;-54
2023/06/29 08:05:42;;;;;;;38.47;27.63;;;21.20;99.90;;;;;;5077151;28;20044;-56
2023/06/29 08:08:07;;;;;;;37.53;27.92;;;21.20;99.90;;;;;;5048745;28;20169;-58
2023/06/29 08:10:33;;;;;;;39.35;27.20;;;21.10;99.90;;;;;;5069827;28;20101;-55
2023/06/29 08:13:00;;;;;;;44.35;29.63;;;21.10;99.90;;;;;;5069482;28;20090;-55
2023/06/29 08:15:26;;;;;;;36.53;27.15;;;21.10;99.90;;;;;;5076806;28;20036;-54
2023/06/29 08:17:52;;;;;;;38.42;28.92;;;21.10;99.90;;;;;;5066179;28;20055;-55
2023/06/29 08:20:18;;;;;;;39.90;29.15;;;21.00;99.90;;;;;;5078361;28;20521;-56
2023/06/29 08:22:45;;;;;;;38.95;29.33;;;21.00;99.90;;;;;;5064379;28;20398;-56
2023/06/29 08:25:10;;;;;;;36.22;27.85;;;21.00;99.90;;;;;;5076987;28;20039;-54
2023/06/29 08:27:36;;;;;;;39.85;29.48;;;21.00;99.90;;;;;;5061673;28;20395;-54
2023/06/29 08:30:02;;;;;;;40.08;29.02;;;21.00;99.90;;;;;;5065321;28;20379;-54
2023/06/29 08:32:28;;;;;;;38.08;28.35;;;21.00;99.90;;;;;;5064337;28;20052;-51
2023/06/29 08:34:54;;;;;;;40.10;30.10;;;20.90;99.90;;;;;;5079219;28;20494;-53
2023/06/29 08:37:20;;;;;;;38.53;29.20;;;20.90;99.90;;;;;;5067261;28;20044;-57
2023/06/29 08:39:46;;;;;;;38.20;30.27;;;20.90;99.90;;;;;;5073791;28;20036;-56
2023/06/29 08:42:12;;;;;;;43.25;31.02;;;20.90;99.90;;;;;;5061018;28;20075;-55
2023/06/29 08:44:38;;;;;;;37.17;28.95;;;20.80;99.90;;;;;;5079027;28;20491;-52
2023/06/29 08:47:05;;;;;;;39.90;30.75;;;20.80;99.90;;;;;;5060572;28;20052;-53
2023/06/29 08:49:35;;;;;;;35.63;28.02;;;20.90;99.90;;;;;;5067286;28;20399;-54
2023/06/29 08:52:04;;;;;;;41.78;31.25;;;20.80;99.90;;;;;;5075076;28;20438;-56
2023/06/29 08:54:31;;;;;;;37.03;28.52;;;20.80;99.90;;;;;;5048854;28;20498;-51
2023/06/29 08:57:00;;;;;;;36.97;29.00;;;20.80;99.90;;;;;;5077788;28;20421;-51
2023/06/29 08:59:27;;;;;;;36.38;28.38;;;20.80;99.90;;;;;;5076350;28;20506;-52
2023/06/29 09:01:54;;;;;;;39.03;29.95;;;20.70;99.90;;;;;;5077917;28;20043;-54
2023/06/29 09:04:20;;;;;;;39.40;29.35;;;20.80;99.90;;;;;;5046633;28;20044;-57
2023/06/29 09:06:46;;;;;;;35.80;28.45;;;20.70;99.90;;;;;;5091822;28;20036;-58
2023/06/29 09:09:12;;;;;;;35.03;29.75;;;20.70;99.90;;;;;;5065397;28;20040;-53
2023/06/29 09:11:38;;;;;;;36.15;29.60;;;20.70;99.90;;;;;;5061747;28;20055;-54
2023/06/29 09:14:06;;;;;;;36.33;28.85;;;20.70;99.90;;;;;;5048091;28;20129;-54
2023/06/29 09:16:34;;;;;;;37.58;29.10;;;20.60;99.90;;;;;;5079529;28;20049;-54
2023/06/29 09:19:00;;;;;;;38.30;29.27;;;20.60;99.90;;;;;;5042421;28;20454;-56
2023/06/29 09:21:29;;;;;;;41.97;32.60;;;20.60;99.90;;;;;;5067581;28;20032;-54
2023/06/29 09:23:58;;;;;;;35.83;27.10;;;20.60;99.90;;;;;;5074390;28;20139;-54
2023/06/29 09:26:29;;;;;;;36.03;27.70;;;20.50;99.90;;;;;;5070955;28;20040;-56
2023/06/29 09:28:59;;;;;;;33.60;27.73;;;20.50;99.90;;;;;;5079227;28;20138;-51
2023/06/29 09:31:32;;;;;;;34.88;27.25;;;20.40;99.90;;;;;;5072321;28;20340;-56
2023/06/29 09:34:16;;;;;;;35.97;28.08;;;20.30;99.90;;;;;;5074903;28;20124;-53
2023/06/29 09:36:42;;;;;;;;;;;20.30;99.90;;;;;;5080949;28;20036;-53
2023/06/29 09:39:07;;;;;;;35.05;30.05;;;20.30;99.90;;;;;;5072234;28;19935;-54
2023/06/29 09:41:56;;;;;;;36.65;28.50;;;20.20;99.90;;;;;;5087227;28;20416;-56
2023/06/29 09:44:25;;;;;;;39.95;29.75;;;20.20;99.90;;;;;;5074839;28;20040;-53
2023/06/29 09:47:05;;;;;;;41.00;33.60;;;20.20;99.90;;;;;;5065790;28;20040;-53
2023/06/29 09:49:43;;;;;;;39.80;31.23;;;20.20;99.90;;;;;;5078434;28;20078;-56
2023/06/29 09:52:09;;;;;;;41.15;33.10;;;20.20;99.90;;;;;;5059616;28;20571;-52
2023/06/29 09:54:35;;;;;;;36.17;29.30;;;20.20;99.90;;;;;;5080939;28;20044;-54
2023/06/29 09:57:04;;;;;;;44.55;33.38;;;20.20;99.90;;;;;;5069249;28;20048;-54
2023/06/29 09:59:35;;;;;;;39.88;32.00;;;20.30;99.90;;;;;;5066742;28;20052;-56
2023/06/29 10:02:01;;;;;;;45.10;32.53;;;20.30;99.90;;;;;;5055521;28;20061;-54
2023/06/29 10:04:26;;;;;;;39.65;32.05;;;20.40;99.90;;;;;;5072776;28;20048;-54
2023/06/29 10:07:16;;;;;;;41.22;32.40;;;20.50;99.90;;;;;;5082796;28;20048;-53
2023/06/29 10:09:47;;;;;;;38.17;31.00;;;20.60;99.90;;;;;;5053856;28;20442;-57
2023/06/29 10:12:14;;;;;;;46.30;34.22;;;20.70;99.90;;;;;;5070813;28;20048;-54
2023/06/29 10:14:43;;;;;;;43.70;34.03;;;20.70;99.90;;;;;;5077563;28;20032;-55
2023/06/29 10:17:13;;;;;;;48.15;34.53;;;20.80;99.90;;;;;;5097311;22;20105;-59
2023/06/29 10:19:41;;;;;;;42.30;33.30;;;20.90;99.90;;;;;;5062551;28;20048;-58
2023/06/29 10:22:11;;;;;;;44.83;35.45;;;20.90;99.90;;;;;;5066869;28;20535;-59
2023/06/29 10:24:43;;;;;;;46.20;34.95;;;20.90;99.90;;;;;;5061835;28;20036;-59
2023/06/29 10:27:10;;;;;;;44.83;34.90;;;20.90;99.90;;;;;;5061042;28;20135;-59
2023/06/29 10:29:43;;;;;;;44.47;34.63;;;20.90;99.90;;;;;;5043020;28;20518;-59
2023/06/29 10:32:09;;;;;;;38.57;31.50;;;20.90;99.90;;;;;;5075901;28;20121;-58
2023/06/29 10:34:58;;;;;;;45.38;34.72;;;20.90;99.90;;;;;;5059943;28;20322;-59
2023/06/29 10:37:34;;;;;;;41.00;33.95;;;20.90;99.90;;;;;;5055882;28;20147;-58
2023/06/29 10:40:00;;;;;;;45.88;31.85;;;20.90;99.90;;;;;;5063663;28;20058;-59
2023/06/29 10:42:26;;;;;;;45.22;35.25;;;20.90;99.90;;;;;;5041690;28;20036;-59
2023/06/29 10:44:51;;;;;;;44.92;33.78;;;20.90;99.90;;;;;;5058760;28;20044;-58
2023/06/29 10:47:28;;;;;;;41.42;34.40;;;20.90;99.90;;;;;;5059352;28;20098;-59
2023/06/29 10:50:21;;;;;;;47.38;36.22;;;20.90;99.90;;;;;;5062117;28;20080;-59
2023/06/29 10:52:48;;;;;;;47.45;34.95;;;20.90;99.90;;;;;;5065744;28;20036;-59
2023/06/29 10:55:14;;;;;;;47.72;36.65;;;20.90;99.90;;;;;;5057799;28;20052;-59
2023/06/29 10:57:43;;;;;;;47.70;35.67;;;20.80;99.90;;;;;;5060668;28;20032;-59
2023/06/29 11:00:09;;;;;;;50.88;37.80;;;20.90;99.90;;;;;;5061871;28;20544;-59
2023/06/29 11:02:39;;;;;;;46.67;36.53;;;20.90;99.90;;;;;;5047481;28;20051;-59
2023/06/29 11:05:05;;;;;;;46.05;36.95;;;20.90;99.90;;;;;;5061157;28;20115;-59
2023/06/29 11:07:31;;;;;;;44.85;34.90;;;21.00;99.90;;;;;;5062823;28;20226;-59
2023/06/29 11:10:04;;;;;;;44.90;34.83;;;21.00;99.90;;;;;;5057733;28;20055;-59
2023/06/29 11:12:29;;;;;;;56.33;37.92;;;21.10;99.90;;;;;;5027150;28;20052;-58
2023/06/29 11:14:55;;;;;;;50.13;35.60;;;21.10;99.90;;;;;;5061052;28;20048;-59
2023/06/29 11:17:23;;;;;;;53.40;36.80;;;21.10;99.90;;;;;;5061189;28;20305;-58
2023/06/29 11:19:49;;;;;;;55.85;38.53;;;21.10;99.90;;;;;;5062001;28;20110;-57
2023/06/29 11:22:26;;;;;;;50.83;34.78;;;21.10;99.90;;;;;;5041846;28;20296;-58
2023/06/29 11:24:52;;;;;;;48.00;35.35;;;21.20;99.90;;;;;;5057018;28;20479;-57
2023/06/29 11:27:18;;;;;;;45.85;34.30;;;21.40;99.90;;;;;;5057172;28;20099;-58
2023/06/29 11:29:44;;;;;;;46.10;35.05;;;21.40;99.90;;;;;;5060601;28;20040;-59
2023/06/29 11:32:11;;;;;;;46.00;35.88;;;21.50;99.90;;;;;;5045984;28;20052;-59
2023/06/29 11:34:38;;;;;;;45.58;36.78;;;21.60;99.90;;;;;;5063152;28;20090;-59
2023/06/29 11:37:04;;;;;;;44.97;33.22;;;21.70;99.90;;;;;;5060704;28;20430;-59
2023/06/29 11:39:30;;;;;;;49.10;36.30;;;21.80;99.90;;;;;;5061164;28;20093;-58
2023/06/29 11:41:56;;;;;;;45.97;34.67;;;21.90;99.90;;;;;;5059012;28;20465;-59
2023/06/29 11:44:23;;;;;;;44.38;35.15;;;21.90;99.90;;;;;;5057669;28;20082;-57
2023/06/29 11:46:48;;;;;;;44.03;33.50;;;21.90;99.90;;;;;;5060825;28;20060;-58
2023/06/29 11:49:18;;;;;;;39.55;31.90;;;22.00;99.90;;;;;;5062958;28;20503;-57
2023/06/29 11:51:44;;;;;;;41.63;30.80;;;22.10;99.90;;;;;;5059141;28;20053;-59
2023/06/29 11:54:10;;;;;;;39.63;30.60;;;22.30;99.90;;;;;;5056023;28;20055;-58
2023/06/29 11:56:41;;;;;;;35.83;28.50;;;22.50;99.90;;;;;;5058507;28;20067;-58
2023/06/29 11:59:12;;;;;;;36.90;27.73;;;22.60;99.90;;;;;;5060546;28;20095;-60
2023/06/29 12:01:39;;;;;;;33.55;25.80;;;22.70;99.90;;;;;;5040216;28;20039;-58
2023/06/29 12:04:08;;;;;;;35.72;27.23;;;22.70;99.90;;;;;;5061595;28;20028;-58
2023/06/29 12:06:48;;;;;;;37.50;28.30;;;22.60;99.90;;;;;;5056203;28;20099;-59
2023/06/29 12:09:14;;;;;;;39.47;28.58;;;22.60;99.90;;;;;;5057180;28;20079;-60
2023/06/29 12:11:40;;;;;;;34.55;26.92;;;22.60;99.90;;;;;;5059759;28;20075;-59
2023/06/29 12:14:09;;;;;;;37.08;28.25;;;22.60;99.90;;;;;;5026661;28;20049;-59
2023/06/29 12:16:41;;;;;;;39.53;28.30;;;22.70;99.90;;;;;;5057191;28;20086;-59
2023/06/29 12:19:13;;;;;;;40.42;29.92;;;22.80;99.90;;;;;;5058594;28;20075;-59
2023/06/29 12:21:39;;;;;;;38.95;29.98;;;23.00;99.90;;;;;;5058747;28;20068;-59
2023/06/29 12:24:05;;;;;;;37.60;28.48;;;23.30;99.90;;;;;;5060900;28;20474;-60
2023/06/29 12:26:31;;;;;;;36.70;28.50;;;23.40;99.90;;;;;;5062403;28;20042;-58
2023/06/29 12:28:57;;;;;;;41.33;30.98;;;23.40;99.90;;;;;;5059167;28;20042;-59